Time;durP1;ratioP1;P1;durP2;ratioP2;P2;SDS_P1;SDS_P2;PMS_P1;PMS_P2;Temp;Humidity;BMP_temperature;BMP_pressure;BME280_temperature;BME280_humidity;BME280_pressure;Samples;Min_cycle;Max_cycle;Signal;HPM_P1;HPM_P2
2022/08/22 00:01:11;;;;;;;7.82;5.85;;;;;;;15.69;76.18;101029.97;7396475;19;20537;-68
2022/08/22 00:03:50;;;;;;;6.50;5.88;;;;;;;15.66;76.30;101031.88;7396006;19;20041;-68
2022/08/22 00:06:25;;;;;;;7.72;6.05;;;;;;;15.62;76.26;101031.16;7397125;19;20024;-67
2022/08/22 00:09:07;;;;;;;10.70;6.10;;;;;;;15.59;76.46;101028.59;7395518;19;20014;-68
2022/08/22 00:11:44;;;;;;;8.57;6.28;;;;;;;15.56;76.64;101023.44;7397148;19;20014;-67
2022/08/22 00:14:27;;;;;;;7.38;5.82;;;;;;;15.52;76.48;101022.69;7394608;19;20007;-68
2022/08/22 00:17:07;;;;;;;8.88;6.00;;;;;;;15.47;76.94;101017.56;7396298;19;20018;-68
2022/08/22 00:19:49;;;;;;;8.05;6.30;;;;;;;15.45;77.08;101026.47;7396287;19;20014;-67
2022/08/22 00:22:24;;;;;;;11.85;6.65;;;;;;;15.42;77.30;101021.31;7395033;19;20481;-67
2022/08/22 00:25:02;;;;;;;11.60;6.88;;;;;;;15.39;77.12;101026.72;7394597;19;20031;-68
2022/08/22 00:27:34;;;;;;;10.10;6.35;;;;;;;15.36;77.58;101026.84;7396739;19;20028;-67
2022/08/22 00:30:09;;;;;;;10.07;6.57;;;;;;;15.33;77.58;101027.81;7396561;19;20014;-67
2022/08/22 00:32:44;;;;;;;10.52;6.43;;;;;;;15.30;77.58;101031.44;7394823;19;20011;-67
2022/08/22 00:35:21;;;;;;;7.80;6.68;;;;;;;15.27;77.94;101025.41;7394344;19;20022;-67
2022/08/22 00:38:01;;;;;;;7.72;6.07;;;;;;;15.25;77.72;101027.22;7396217;19;20018;-67
2022/08/22 00:40:52;;;;;;;9.35;6.28;;;;;;;15.22;77.73;101027.34;7396191;19;20024;-68
2022/08/22 00:43:58;;;;;;;7.55;6.30;;;;;;;15.17;77.78;101027.50;7393965;19;20354;-68
2022/08/22 00:46:46;;;;;;;8.57;6.40;;;;;;;15.13;77.83;101028.53;7395225;19;20082;-67
2022/08/22 00:49:51;;;;;;;9.63;5.95;;;;;;;15.09;78.22;101033.06;7394324;19;20018;-67
2022/08/22 00:52:34;;;;;;;6.60;5.90;;;;;;;15.06;78.22;101024.38;7394185;19;20011;-67
2022/08/22 00:55:16;;;;;;;7.25;6.15;;;;;;;15.01;78.36;101024.53;7394053;19;20021;-67
2022/08/22 00:58:01;;;;;;;9.20;6.05;;;;;;;14.98;78.36;101028.16;7395616;19;20022;-67
2022/08/22 01:00:33;;;;;;;8.23;6.68;;;;;;;14.97;78.33;101030.84;7395818;19;20022;-68
2022/08/22 01:03:40;;;;;;;9.13;5.93;;;;;;;14.95;78.14;101030.03;7393459;19;20464;-68
2022/08/22 01:06:22;;;;;;;8.43;5.60;;;;;;;14.91;77.91;101031.06;7394872;19;20023;-67
2022/08/22 01:09:02;;;;;;;9.95;6.40;;;;;;;14.88;77.99;101037.31;7395085;19;20419;-68
2022/08/22 01:12:05;;;;;;;13.15;6.80;;;;;;;14.79;78.00;101016.53;7394749;19;20007;-67
2022/08/22 01:14:48;;;;;;;7.47;6.20;;;;;;;14.77;78.29;101035.09;7393960;19;20014;-70
2022/08/22 01:17:52;;;;;;;8.55;6.40;;;;;;;14.75;77.92;101031.63;7393497;19;20018;-70
2022/08/22 01:21:05;;;;;;;8.50;6.13;;;;;;;14.71;77.93;101035.28;7394853;19;20027;-70
2022/08/22 01:24:17;;;;;;;11.35;5.88;;;;;;;14.66;78.06;101038.06;7392378;19;20552;-70
2022/08/22 01:27:15;;;;;;;7.03;6.05;;;;;;;14.64;78.00;101041.66;7395132;19;20031;-70
2022/08/22 01:30:22;;;;;;;9.55;5.95;;;;;;;14.59;78.10;101046.22;7394227;19;20431;-70
2022/08/22 01:33:22;;;;;;;6.40;5.80;;;;;;;14.54;78.10;101045.53;7392366;19;20018;-70
2022/08/22 01:36:16;;;;;;;12.55;6.45;;;;;;;14.51;78.13;101043.84;7393304;19;20074;-70
2022/08/22 01:39:04;;;;;;;7.75;6.28;;;;;;;14.47;78.27;101045.72;7394606;19;20023;-70
2022/08/22 01:42:03;;;;;;;7.88;6.78;;;;;;;14.45;78.25;101052.81;7394002;19;20031;-70
2022/08/22 01:44:50;;;;;;;7.82;6.25;;;;;;;14.43;78.33;101046.75;7392785;19;20151;-70
2022/08/22 01:47:24;;;;;;;10.77;6.50;;;;;;;14.41;78.29;101045.94;7393616;19;20027;-70
2022/08/22 01:49:59;;;;;;;8.43;6.20;;;;;;;14.40;78.30;101041.56;7394565;19;20022;-70
2022/08/22 01:52:40;;;;;;;9.10;6.88;;;;;;;14.37;78.51;101046.94;7391962;19;20380;-70
2022/08/22 01:55:14;;;;;;;10.43;7.07;;;;;;;14.35;78.85;101048.75;7391664;19;20422;-70
2022/08/22 01:57:56;;;;;;;10.05;6.90;;;;;;;14.33;78.89;101045.31;7392311;19;20027;-70
2022/08/22 02:00:28;;;;;;;10.82;7.03;;;;;;;14.31;79.12;101041.88;7393425;19;20074;-70
2022/08/22 02:03:10;;;;;;;7.22;6.53;;;;;;;14.29;79.14;101039.28;7391812;19;20014;-70
2022/08/22 02:05:48;;;;;;;7.20;6.57;;;;;;;14.27;79.10;101033.19;7397503;19;20018;-70
2022/08/22 02:08:28;;;;;;;8.02;6.35;;;;;;;14.26;79.34;101033.25;7400607;19;20019;-69
2022/08/22 02:11:04;;;;;;;8.43;6.30;;;;;;;14.24;79.61;101043.84;7401368;19;20010;-69
2022/08/22 02:13:51;;;;;;;8.80;7.05;;;;;;;14.22;79.46;101036.91;7399737;19;20018;-70
2022/08/22 02:16:27;;;;;;;8.20;6.70;;;;;;;14.21;79.50;101040.44;7401597;19;20029;-70
2022/08/22 02:19:05;;;;;;;7.43;6.68;;;;;;;14.18;79.65;101036.97;7399056;19;20023;-69
2022/08/22 02:21:44;;;;;;;10.07;5.85;;;;;;;14.16;79.69;101040.56;7398438;19;20019;-70
2022/08/22 02:24:28;;;;;;;7.70;6.70;;;;;;;14.14;79.66;101045.03;7399968;19;20019;-71
2022/08/22 02:27:10;;;;;;;6.53;5.93;;;;;;;14.11;79.71;101051.28;7400126;19;20011;-69
2022/08/22 02:29:45;;;;;;;7.57;6.63;;;;;;;14.09;79.72;101042.56;7399701;19;20014;-69
2022/08/22 02:32:21;;;;;;;7.50;6.80;;;;;;;14.08;80.00;101042.59;7399580;19;20022;-70
2022/08/22 02:35:04;;;;;;;7.35;6.57;;;;;;;14.06;80.00;101042.63;7397670;19;20018;-70
2022/08/22 02:37:38;;;;;;;7.25;6.45;;;;;;;14.04;79.74;101038.31;7399900;19;20031;-70
2022/08/22 02:40:18;;;;;;;6.63;5.85;;;;;;;14.01;80.15;101039.28;7397454;19;20478;-70
2022/08/22 02:42:52;;;;;;;7.47;6.70;;;;;;;13.99;79.89;101039.34;7398184;19;20074;-70
2022/08/22 02:45:28;;;;;;;7.90;6.90;;;;;;;13.98;80.04;101047.31;7397335;19;20375;-70
2022/08/22 02:48:04;;;;;;;10.48;6.45;;;;;;;13.96;80.01;101042.09;7396979;19;20014;-70
2022/08/22 02:50:42;;;;;;;6.85;6.07;;;;;;;13.96;80.06;101049.13;7399777;19;20036;-70
2022/08/22 02:53:17;;;;;;;7.40;6.10;;;;;;;13.95;79.94;101044.75;7399556;19;20035;-70
2022/08/22 02:55:57;;;;;;;8.43;6.68;;;;;;;13.94;79.99;101045.66;7399070;19;20032;-69
2022/08/22 02:58:35;;;;;;;6.82;6.13;;;;;;;13.93;79.97;101043.94;7399645;19;20018;-70
2022/08/22 03:01:41;;;;;;;7.32;6.63;;;;;;;13.91;79.99;101037.84;7398772;19;20381;-70
2022/08/22 03:04:25;;;;;;;6.97;6.28;;;;;;;13.89;80.00;101035.28;7395605;19;20015;-70
2022/08/22 03:07:14;;;;;;;8.68;6.15;;;;;;;13.89;80.01;101037.03;7399378;19;20022;-70
2022/08/22 03:09:47;;;;;;;8.95;6.88;;;;;;;13.88;80.02;101036.16;7399141;19;20031;-70
2022/08/22 03:12:27;;;;;;;10.02;6.78;;;;;;;13.86;79.96;101037.97;7398381;19;20031;-70
2022/08/22 03:15:03;;;;;;;9.95;6.45;;;;;;;13.85;80.19;101037.13;7395976;19;20010;-70
2022/08/22 03:17:36;;;;;;;9.57;6.90;;;;;;;13.82;80.14;101034.56;7397244;19;20494;-70
2022/08/22 03:20:11;;;;;;;;;;;;;;;13.81;79.95;101037.25;7399038;19;20014;-70
2022/08/22 03:22:50;;;;;;;9.68;7.32;;;;;;;13.78;79.91;101030.31;7398103;19;19927;-70
2022/08/22 03:25:31;;;;;;;7.30;6.55;;;;;;;13.77;80.13;101030.38;7396313;19;20011;-70
2022/08/22 03:28:05;;;;;;;7.53;6.80;;;;;;;13.75;80.12;101029.53;7398376;19;20011;-70
2022/08/22 03:30:42;;;;;;;7.70;6.72;;;;;;;13.74;80.16;101031.31;7397780;19;20411;-70
2022/08/22 03:33:20;;;;;;;9.50;7.05;;;;;;;13.71;80.11;101026.16;7397032;19;20556;-70
2022/08/22 03:36:01;;;;;;;8.68;7.53;;;;;;;13.68;80.11;101032.34;7397446;19;20019;-70
2022/08/22 03:38:42;;;;;;;7.43;6.68;;;;;;;13.66;80.27;101026.28;7394541;19;20359;-70
2022/08/22 03:41:33;;;;;;;8.80;7.13;;;;;;;13.64;80.25;101030.72;7396742;19;20462;-70
2022/08/22 03:44:33;;;;;;;8.05;7.25;;;;;;;13.62;80.24;101029.06;7395322;19;20096;-70
2022/08/22 03:47:29;;;;;;;7.70;6.90;;;;;;;13.60;80.47;101031.75;7395758;19;20529;-70
2022/08/22 03:50:28;;;;;;;9.07;6.72;;;;;;;13.57;80.36;101036.22;7396505;19;20087;-70
2022/08/22 03:53:31;;;;;;;10.27;7.38;;;;;;;13.53;80.27;101032.81;7396777;19;20074;-70
2022/08/22 03:56:29;;;;;;;8.00;7.20;;;;;;;13.48;80.34;101038.25;7397998;19;20035;-71
2022/08/22 03:59:12;;;;;;;7.75;6.45;;;;;;;13.44;80.40;101043.66;7396042;19;20027;-72
2022/08/22 04:01:58;;;;;;;44.80;26.88;;;;;;;13.40;80.50;101042.84;7394945;19;20015;-70
2022/08/22 04:05:08;;;;;;;19.88;14.48;;;;;;;13.36;80.71;101047.31;7395006;19;20064;-70
2022/08/22 04:08:04;;;;;;;43.25;29.83;;;;;;;13.34;80.66;101046.53;7396012;19;20525;-70
2022/08/22 04:11:00;;;;;;;12.48;9.82;;;;;;;13.34;81.01;101053.53;7396751;19;20011;-70
2022/08/22 04:13:51;;;;;;;15.40;11.20;;;;;;;13.33;81.18;101052.69;7395598;19;20545;-70
2022/08/22 04:17:04;;;;;;;11.23;10.13;;;;;;;13.32;81.42;101052.72;7396443;19;20035;-70
2022/08/22 04:19:56;;;;;;;10.48;9.30;;;;;;;13.30;81.50;101047.50;7394964;19;20085;-70
2022/08/22 04:22:45;;;;;;;11.05;9.80;;;;;;;13.31;81.69;101053.66;7396113;19;20107;-70
2022/08/22 04:25:18;;;;;;;10.52;9.27;;;;;;;13.32;81.70;101060.63;7393692;19;20022;-70
2022/08/22 04:27:59;;;;;;;12.00;9.52;;;;;;;13.35;81.67;101055.28;7391893;19;20026;-70
2022/08/22 04:30:34;;;;;;;13.80;9.20;;;;;;;13.35;81.95;101061.41;7393902;19;20510;-70
2022/08/22 04:33:13;;;;;;;11.35;8.95;;;;;;;13.38;82.00;101062.25;7394828;19;20482;-71
2022/08/22 04:35:52;;;;;;;9.27;7.90;;;;;;;13.39;82.00;101062.22;7395582;19;20014;-70
2022/08/22 04:38:27;;;;;;;10.98;8.60;;;;;;;13.43;81.99;101069.13;7394995;19;20031;-70
2022/08/22 04:40:58;;;;;;;11.90;8.52;;;;;;;13.46;82.13;101069.03;7394358;19;20024;-71
2022/08/22 04:43:44;;;;;;;10.13;9.13;;;;;;;13.50;82.26;101075.09;7393115;19;20018;-71
2022/08/22 04:46:19;;;;;;;9.50;8.32;;;;;;;13.53;82.16;101075.00;7394415;19;20031;-71
2022/08/22 04:48:54;;;;;;;10.85;9.25;;;;;;;13.56;82.17;101074.03;7395121;19;20022;-71
2022/08/22 04:51:30;;;;;;;10.32;9.20;;;;;;;13.59;82.19;101079.25;7394566;19;20023;-71
2022/08/22 04:54:26;;;;;;;21.50;8.93;;;;;;;13.62;82.09;101077.38;7392949;19;20522;-71
2022/08/22 04:57:09;;;;;;;10.43;9.27;;;;;;;13.64;81.99;101077.34;7394419;19;20122;-72
2022/08/22 04:59:38;;;;;;;9.82;8.90;;;;;;;13.69;82.19;101084.19;7392725;19;20035;-70
2022/08/22 05:02:10;;;;;;;12.52;8.60;;;;;;;13.74;81.85;101084.06;7390928;19;20024;-70
2022/08/22 05:04:42;;;;;;;8.68;7.82;;;;;;;13.78;82.02;101085.69;7391438;19;20036;-71
2022/08/22 05:07:18;;;;;;;10.23;8.10;;;;;;;13.84;81.83;101085.50;7392024;19;20014;-70
2022/08/22 05:09:50;;;;;;;11.25;7.50;;;;;;;13.83;81.63;101078.50;7392391;19;20090;-71
2022/08/22 05:12:24;;;;;;;8.23;7.50;;;;;;;13.92;81.54;101090.56;7392767;19;20038;-71
2022/08/22 05:14:57;;;;;;;12.27;8.68;;;;;;;13.96;81.41;101086.03;7392920;19;20014;-71
2022/08/22 05:17:30;;;;;;;12.60;8.57;;;;;;;14.00;81.44;101092.94;7391845;19;20014;-70
2022/08/22 05:20:03;;;;;;;9.85;8.25;;;;;;;14.04;81.35;101086.69;7392194;19;20103;-70
2022/08/22 05:22:39;;;;;;;14.02;8.30;;;;;;;14.10;81.24;101086.50;7391203;19;20494;-70
2022/08/22 05:25:13;;;;;;;10.65;7.35;;;;;;;14.16;81.21;101090.72;7391590;19;20011;-71
2022/08/22 05:27:52;;;;;;;9.93;7.57;;;;;;;14.21;80.85;101090.59;7393720;19;20011;-70
2022/08/22 05:30:25;;;;;;;9.30;6.80;;;;;;;14.27;80.87;101090.38;7389559;19;20490;-71
2022/08/22 05:32:59;;;;;;;7.43;6.60;;;;;;;14.31;80.47;101094.66;7394360;19;20019;-71
2022/08/22 05:35:36;;;;;;;6.93;6.32;;;;;;;14.38;80.44;101100.59;7394292;19;20038;-71
2022/08/22 05:38:10;;;;;;;7.53;6.80;;;;;;;14.42;80.39;101103.09;7393331;19;20019;-70
2022/08/22 05:40:40;;;;;;;10.57;7.43;;;;;;;14.47;80.32;101098.53;7397878;19;20054;-70
2022/08/22 05:43:12;;;;;;;8.00;7.20;;;;;;;14.52;80.41;101108.06;7399608;19;20501;-71
2022/08/22 05:45:46;;;;;;;8.93;6.68;;;;;;;14.57;80.38;101108.78;7401450;19;20022;-71
2022/08/22 05:48:20;;;;;;;8.23;7.43;;;;;;;14.63;80.23;101106.81;7401690;19;20019;-70
2022/08/22 05:50:54;;;;;;;9.13;7.30;;;;;;;14.69;80.15;101111.06;7401353;19;20031;-70
2022/08/22 05:53:31;;;;;;;8.32;7.53;;;;;;;14.77;80.02;101110.78;7400308;19;20507;-70
2022/08/22 05:56:03;;;;;;;9.98;7.65;;;;;;;14.83;80.03;101114.09;7401325;19;20029;-70
2022/08/22 05:58:49;;;;;;;10.25;7.55;;;;;;;14.90;79.76;101116.53;7399119;19;20011;-70
2022/08/22 06:01:27;;;;;;;7.88;6.95;;;;;;;14.97;79.59;101120.69;7401918;19;20007;-68
2022/08/22 06:04:15;;;;;;;7.90;6.78;;;;;;;15.02;79.42;101121.38;7398863;19;20015;-68
2022/08/22 06:06:53;;;;;;;8.32;7.00;;;;;;;15.11;79.15;101122.84;7399223;19;20462;-68
2022/08/22 06:09:31;;;;;;;8.50;7.70;;;;;;;15.19;79.01;101127.88;7399658;19;20026;-68
2022/08/22 06:12:04;;;;;;;11.38;7.68;;;;;;;15.26;78.83;101129.38;7400498;19;20047;-68
2022/08/22 06:14:41;;;;;;;8.48;7.57;;;;;;;15.33;78.61;101133.56;7397710;19;20402;-68
2022/08/22 06:17:15;;;;;;;9.48;7.43;;;;;;;15.40;78.58;101137.69;7399146;19;20482;-67
2022/08/22 06:19:48;;;;;;;13.35;9.80;;;;;;;15.46;78.32;101136.63;7397501;19;20020;-68
2022/08/22 06:22:20;;;;;;;14.15;8.85;;;;;;;15.53;78.39;101135.47;7400223;19;20032;-67
2022/08/22 06:24:53;;;;;;;14.38;9.98;;;;;;;15.59;78.14;101139.69;7397606;19;20026;-68
2022/08/22 06:27:25;;;;;;;15.73;10.02;;;;;;;15.66;77.94;101145.59;7400706;19;20078;-67
2022/08/22 06:30:00;;;;;;;14.13;12.13;;;;;;;15.73;77.73;101141.81;7400343;19;20074;-67
2022/08/22 06:32:31;;;;;;;16.85;11.57;;;;;;;15.83;77.42;101145.03;7398971;19;20039;-67
2022/08/22 06:35:05;;;;;;;15.13;10.30;;;;;;;15.91;77.43;101140.28;7396375;19;20015;-68
2022/08/22 06:37:36;;;;;;;13.02;9.98;;;;;;;15.97;77.44;101140.06;7399563;19;20018;-68
2022/08/22 06:40:12;;;;;;;12.48;9.15;;;;;;;16.05;77.24;101140.63;7399558;19;20380;-67
2022/08/22 06:42:44;;;;;;;11.85;9.85;;;;;;;16.12;76.92;101139.50;7399314;19;20011;-68
2022/08/22 06:45:18;;;;;;;16.38;12.07;;;;;;;16.22;76.63;101144.41;7396823;19;20090;-68
2022/08/22 06:47:50;;;;;;;11.68;10.25;;;;;;;16.31;76.43;101143.19;7396777;19;20557;-67
2022/08/22 06:50:26;;;;;;;14.43;12.00;;;;;;;16.39;76.43;101146.38;7395782;19;20027;-68
2022/08/22 06:53:01;;;;;;;13.05;10.63;;;;;;;16.50;76.02;101146.81;7399375;19;20024;-67
2022/08/22 06:55:33;;;;;;;13.48;10.88;;;;;;;16.58;76.12;101146.50;7397253;19;20419;-67
2022/08/22 06:58:05;;;;;;;13.25;10.80;;;;;;;16.65;75.35;101147.13;7396320;19;20015;-67
2022/08/22 07:00:35;;;;;;;12.13;10.80;;;;;;;16.71;75.45;101145.09;7395915;19;20504;-68
2022/08/22 07:03:12;;;;;;;11.75;10.10;;;;;;;16.82;75.36;101159.69;7398813;19;20025;-69
2022/08/22 07:05:43;;;;;;;13.68;10.70;;;;;;;16.90;75.04;101155.78;7399334;19;20015;-68
2022/08/22 07:08:15;;;;;;;13.68;11.07;;;;;;;17.01;74.70;101152.72;7398469;19;20007;-68
2022/08/22 07:10:51;;;;;;;10.82;9.75;;;;;;;17.13;74.64;101161.09;7397968;19;20360;-68
2022/08/22 07:13:21;;;;;;;11.52;10.43;;;;;;;17.21;74.09;101154.53;7396010;19;20019;-68
2022/08/22 07:15:56;;;;;;;10.40;9.35;;;;;;;17.32;73.83;101158.50;7395939;19;20014;-68
2022/08/22 07:18:28;;;;;;;11.57;8.95;;;;;;;17.40;73.63;101159.91;7398570;19;20035;-68
2022/08/22 07:21:00;;;;;;;9.45;8.45;;;;;;;17.52;73.34;101157.63;7397978;19;20026;-67
2022/08/22 07:23:35;;;;;;;12.60;8.98;;;;;;;17.60;72.70;101158.13;7397673;19;20018;-68
2022/08/22 07:26:18;;;;;;;37.50;24.40;;;;;;;17.69;72.91;101157.75;7398168;19;20038;-68
2022/08/22 07:28:52;;;;;;;16.70;10.75;;;;;;;17.79;72.39;101157.31;7397201;19;20023;-68
2022/08/22 07:31:33;;;;;;;11.10;8.77;;;;;;;17.87;71.81;101158.69;7397843;19;20019;-67
2022/08/22 07:34:14;;;;;;;11.07;8.40;;;;;;;17.97;71.93;101150.31;7396048;19;20099;-68
2022/08/22 07:36:50;;;;;;;17.63;11.75;;;;;;;18.05;71.41;101149.03;7397403;19;20082;-68
2022/08/22 07:39:27;;;;;;;11.80;8.80;;;;;;;18.14;71.12;101153.06;7396652;19;20027;-68
2022/08/22 07:42:12;;;;;;;10.80;8.52;;;;;;;18.22;70.88;101155.34;7396168;19;20088;-68
2022/08/22 07:45:01;;;;;;;10.15;8.23;;;;;;;18.30;70.46;101154.97;7395214;19;20537;-67
2022/08/22 07:47:40;;;;;;;10.57;8.15;;;;;;;18.36;70.47;101152.91;7395835;19;20014;-68
2022/08/22 07:50:12;;;;;;;9.95;8.00;;;;;;;18.43;70.40;101147.31;7397104;19;20482;-68
2022/08/22 07:52:44;;;;;;;12.55;9.77;;;;;;;18.52;69.89;101155.69;7396472;19;20022;-68
2022/08/22 07:55:20;;;;;;;17.10;9.88;;;;;;;18.58;69.84;101159.84;7394615;19;20086;-68
2022/08/22 07:57:57;;;;;;;9.65;7.28;;;;;;;18.66;69.77;101156.81;7395437;19;20025;-68
2022/08/22 08:00:27;;;;;;;10.45;8.07;;;;;;;18.73;69.69;101155.56;7395163;19;20035;-68
2022/08/22 08:02:59;;;;;;;10.98;7.78;;;;;;;18.81;69.54;101157.84;7396343;19;20037;-69
2022/08/22 08:05:32;;;;;;;11.93;8.75;;;;;;;18.87;69.16;101153.06;7394865;19;20011;-68
2022/08/22 08:08:10;;;;;;;9.60;7.10;;;;;;;18.95;68.63;101157.19;7396457;19;20019;-68
2022/08/22 08:10:41;;;;;;;8.70;7.15;;;;;;;19.00;68.76;101156.00;7396902;19;20429;-68
2022/08/22 08:13:18;;;;;;;10.05;6.40;;;;;;;19.08;68.41;101155.59;7396767;19;20033;-68
2022/08/22 08:15:47;;;;;;;8.20;6.05;;;;;;;19.16;68.76;101152.59;7394558;19;20006;-68
2022/08/22 08:18:20;;;;;;;7.70;6.47;;;;;;;19.26;68.68;101163.59;7394272;19;20015;-68
2022/08/22 08:20:53;;;;;;;8.57;6.68;;;;;;;19.32;68.62;101150.84;7394335;19;20011;-68
2022/08/22 08:23:23;;;;;;;8.73;6.40;;;;;;;19.40;68.04;101160.22;7395800;19;20354;-68
2022/08/22 08:26:04;;;;;;;8.43;5.50;;;;;;;19.47;68.14;101158.97;7395018;19;20019;-69
2022/08/22 08:28:38;;;;;;;6.88;6.15;;;;;;;19.53;67.55;101155.97;7395935;19;20014;-67
2022/08/22 08:31:14;;;;;;;7.57;5.18;;;;;;;19.61;67.67;101160.88;7394069;19;20516;-68
2022/08/22 08:33:46;;;;;;;8.40;5.60;;;;;;;19.68;68.00;101155.16;7395524;19;20478;-67
2022/08/22 08:36:28;;;;;;;7.35;4.82;;;;;;;19.78;67.96;101150.19;7395309;19;20023;-68
2022/08/22 08:39:08;;;;;;;6.07;5.15;;;;;;;19.86;67.47;101153.31;7395330;19;20035;-66
2022/08/22 08:42:02;;;;;;;7.85;5.35;;;;;;;19.97;67.43;101150.09;7395702;19;20025;-68
2022/08/22 08:44:56;;;;;;;7.60;5.10;;;;;;;20.10;67.45;101152.06;7392729;19;20021;-68
2022/08/22 08:47:39;;;;;;;8.30;5.68;;;;;;;20.22;67.11;101146.06;7395500;19;20031;-68
2022/08/22 08:50:25;;;;;;;10.00;5.03;;;;;;;20.34;66.49;101150.69;7394903;19;20014;-68
2022/08/22 08:53:11;;;;;;;5.65;4.20;;;;;;;20.45;66.08;101150.09;7395215;19;20028;-67
2022/08/22 08:55:50;;;;;;;5.20;3.83;;;;;;;20.53;63.90;101154.97;7393006;19;20363;-67
2022/08/22 08:58:36;;;;;;;5.60;3.95;;;;;;;20.61;64.39;101152.75;7396052;19;20022;-65
2022/08/22 09:01:24;;;;;;;4.80;4.10;;;;;;;20.73;64.48;101155.69;7393645;19;20045;-68
2022/08/22 09:04:42;;;;;;;6.47;3.75;;;;;;;20.84;61.90;101147.91;7392939;19;20106;-66
2022/08/22 09:07:52;;;;;;;6.65;3.70;;;;;;;20.98;61.16;101150.63;7394300;19;20007;-66
2022/08/22 09:10:34;;;;;;;4.65;3.47;;;;;;;21.14;61.52;101153.25;7392275;19;20024;-70
2022/08/22 09:13:22;;;;;;;7.38;3.53;;;;;;;21.28;60.91;101152.41;7394457;19;20022;-70
2022/08/22 09:16:26;;;;;;;6.20;3.22;;;;;;;21.43;60.36;101150.63;7405088;19;20010;-69
2022/08/22 09:19:13;;;;;;;5.82;4.38;;;;;;;21.54;59.82;101155.28;7407413;19;20362;-69
2022/08/22 09:22:04;;;;;;;4.88;3.25;;;;;;;21.67;59.44;101150.06;7408259;19;20019;-69
2022/08/22 09:25:01;;;;;;;7.32;3.97;;;;;;;21.84;59.16;101150.81;7406296;19;20018;-68
2022/08/22 09:27:36;;;;;;;8.40;4.30;;;;;;;21.95;58.73;101149.22;7408401;19;20011;-70
2022/08/22 09:30:11;;;;;;;5.78;2.83;;;;;;;22.08;57.78;101143.09;7407542;19;20015;-68
2022/08/22 09:32:56;;;;;;;3.10;1.77;;;;;;;22.21;54.22;101145.84;7407907;19;20035;-69
2022/08/22 09:35:29;;;;;;;3.75;1.80;;;;;;;22.31;55.48;101149.63;7407869;19;20022;-71
2022/08/22 09:38:27;;;;;;;5.45;2.05;;;;;;;22.44;54.30;101144.34;7406866;19;20031;-69
2022/08/22 09:41:08;;;;;;;6.03;2.53;;;;;;;22.57;54.38;101145.28;7406697;19;20041;-69
2022/08/22 09:43:40;;;;;;;7.00;2.20;;;;;;;22.71;53.91;101141.69;7405642;19;20018;-70
2022/08/22 09:46:16;;;;;;;7.95;5.45;;;;;;;22.84;53.13;101141.72;7405677;19;20035;-70
2022/08/22 09:49:00;;;;;;;12.43;6.72;;;;;;;22.94;53.12;101142.78;7407006;19;20031;-68
2022/08/22 09:51:37;;;;;;;8.75;4.18;;;;;;;23.07;53.15;101139.28;7406852;19;20019;-69
2022/08/22 09:54:31;;;;;;;9.93;5.45;;;;;;;23.20;51.95;101140.22;7404623;19;20505;-69
2022/08/22 09:57:07;;;;;;;8.45;3.78;;;;;;;23.30;52.05;101148.44;7404643;19;20032;-69
2022/08/22 10:00:17;;;;;;;4.78;2.00;;;;;;;23.41;51.63;101145.03;7407578;19;20031;-68
2022/08/22 10:02:54;;;;;;;5.78;3.28;;;;;;;23.49;51.55;101137.28;7406019;19;20521;-66
2022/08/22 10:05:36;;;;;;;4.65;2.00;;;;;;;23.58;51.05;101144.69;7405534;19;20039;-67
2022/08/22 10:08:15;;;;;;;6.15;1.85;;;;;;;23.65;50.61;101146.94;7407392;19;20031;-68
2022/08/22 10:11:04;;;;;;;6.57;1.50;;;;;;;23.69;49.28;101146.59;7406165;19;20022;-68
2022/08/22 10:13:44;;;;;;;4.90;1.25;;;;;;;23.74;48.96;101141.78;7408119;19;20022;-69
2022/08/22 10:16:21;;;;;;;5.38;2.03;;;;;;;23.76;48.91;101139.00;7404673;19;20013;-69
2022/08/22 10:19:00;;;;;;;3.85;2.00;;;;;;;23.81;48.76;101134.16;7407049;19;20020;-68
2022/08/22 10:21:39;;;;;;;6.90;1.90;;;;;;;23.87;48.57;101139.09;7408667;19;20043;-69
2022/08/22 10:24:22;;;;;;;5.15;1.88;;;;;;;23.93;46.91;101142.31;7405520;19;20037;-68
2022/08/22 10:26:54;;;;;;;4.43;1.40;;;;;;;24.00;47.94;101135.53;7394982;19;20489;-68
2022/08/22 10:29:43;;;;;;;5.00;1.85;;;;;;;24.04;47.19;101137.06;7398396;19;20032;-70
2022/08/22 10:32:29;;;;;;;3.97;1.65;;;;;;;24.09;47.07;101142.94;7395422;19;20454;-66
2022/08/22 10:35:03;;;;;;;5.40;1.60;;;;;;;24.14;47.37;101140.75;7396219;19;20022;-65
2022/08/22 10:37:41;;;;;;;3.45;1.67;;;;;;;24.20;46.96;101137.63;7399360;19;20018;-66
2022/08/22 10:40:16;;;;;;;7.05;1.55;;;;;;;24.27;46.96;101142.56;7396333;19;20011;-66
2022/08/22 10:42:52;;;;;;;4.32;1.65;;;;;;;24.32;46.73;101138.56;7399187;19;20019;-66
2022/08/22 10:45:30;;;;;;;7.95;1.77;;;;;;;24.39;46.86;101138.94;7398972;19;20078;-65
2022/08/22 10:48:23;;;;;;;8.73;3.72;;;;;;;24.44;46.41;101139.47;7396269;19;20493;-65
2022/08/22 10:50:57;;;;;;;4.53;1.90;;;;;;;24.51;46.57;101139.88;7396288;19;20025;-66
2022/08/22 10:54:01;;;;;;;3.80;1.67;;;;;;;24.52;46.39;101142.44;7396012;19;20018;-66
2022/08/22 10:56:33;;;;;;;;;;;;;;;24.55;47.00;101130.63;7397385;19;20023;-66
2022/08/22 10:59:11;;;;;;;5.13;2.10;;;;;;;24.60;46.59;101132.97;7396445;19;19940;-64
2022/08/22 11:01:49;;;;;;;6.28;2.03;;;;;;;24.63;46.06;101133.59;7398438;19;20023;-65
2022/08/22 11:04:44;;;;;;;14.90;2.30;;;;;;;24.70;45.52;101148.28;7396737;19;20507;-65
2022/08/22 11:07:21;;;;;;;6.15;1.67;;;;;;;24.76;45.65;101133.56;7398572;19;20087;-65
2022/08/22 11:10:00;;;;;;;4.18;1.70;;;;;;;24.84;45.44;101139.19;7398443;19;20010;-64
2022/08/22 11:12:35;;;;;;;7.82;2.45;;;;;;;24.94;45.75;101141.19;7395160;19;20031;-63
2022/08/22 11:15:14;;;;;;;5.47;2.00;;;;;;;25.00;45.15;101133.50;7394283;19;20017;-66
2022/08/22 11:18:16;;;;;;;7.40;2.15;;;;;;;25.07;45.44;101139.25;7398352;19;20019;-66
2022/08/22 11:20:56;;;;;;;5.70;1.50;;;;;;;25.16;44.91;101143.91;7397730;19;20018;-66
2022/08/22 11:23:39;;;;;;;5.47;1.85;;;;;;;25.22;44.27;101142.56;7396666;19;20031;-65
2022/08/22 11:26:24;;;;;;;5.80;2.10;;;;;;;25.29;44.41;101137.59;7394851;19;20478;-65
2022/08/22 11:29:04;;;;;;;5.35;2.17;;;;;;;25.39;43.50;101135.94;7396503;19;20015;-67
2022/08/22 11:31:44;;;;;;;3.70;1.55;;;;;;;25.44;44.41;101136.44;7395417;19;20019;-67
2022/08/22 11:34:22;;;;;;;3.80;1.60;;;;;;;25.52;44.14;101130.44;7395936;19;20027;-68
2022/08/22 11:36:55;;;;;;;4.03;1.63;;;;;;;25.58;43.84;101134.47;7394319;19;20022;-65
2022/08/22 11:39:33;;;;;;;7.55;1.80;;;;;;;25.62;43.93;101131.41;7395075;19;20014;-66
2022/08/22 11:42:14;;;;;;;2.90;1.75;;;;;;;25.70;43.91;101125.44;7397035;19;20022;-66
2022/08/22 11:44:48;;;;;;;4.35;1.77;;;;;;;25.73;43.55;101117.13;7394876;19;20019;-66
2022/08/22 11:47:21;;;;;;;6.40;1.92;;;;;;;25.77;43.42;101126.66;7394767;19;20010;-66
2022/08/22 11:50:00;;;;;;;7.10;2.13;;;;;;;25.83;43.29;101123.47;7395554;19;20026;-66
2022/08/22 11:53:12;;;;;;;4.97;1.80;;;;;;;25.90;43.06;101114.91;7397550;19;20019;-66
2022/08/22 11:55:49;;;;;;;5.82;1.73;;;;;;;25.96;42.90;101111.75;7394624;19;20082;-66
2022/08/22 11:58:36;;;;;;;3.38;1.55;;;;;;;26.09;42.35;101108.94;7397254;19;20086;-68
2022/08/22 12:01:12;;;;;;;6.22;1.83;;;;;;;26.26;42.39;101108.41;7397214;19;20086;-66
2022/08/22 12:04:01;;;;;;;4.45;1.50;;;;;;;26.48;41.97;101106.59;7395656;19;20101;-66
2022/08/22 12:07:02;;;;;;;6.30;1.80;;;;;;;26.65;41.21;101114.13;7396573;19;20035;-67
2022/08/22 12:09:54;;;;;;;4.38;1.35;;;;;;;26.76;40.68;101109.69;7396108;19;20035;-64
2022/08/22 12:12:28;;;;;;;3.95;1.42;;;;;;;26.78;40.12;101108.56;7395856;19;20485;-65
2022/08/22 12:15:05;;;;;;;8.63;1.40;;;;;;;26.77;38.22;101111.41;7394456;19;20074;-65
2022/08/22 12:18:12;;;;;;;3.67;1.42;;;;;;;26.59;40.02;101103.00;7395570;19;20031;-66
2022/08/22 12:21:18;;;;;;;3.95;1.48;;;;;;;26.56;40.07;101108.66;7394542;19;20087;-66
2022/08/22 12:24:11;;;;;;;3.53;1.45;;;;;;;26.60;39.80;101110.09;7393071;19;20015;-66
2022/08/22 12:26:52;;;;;;;3.33;2.05;;;;;;;26.65;39.19;101097.09;7394266;19;20481;-66